createdAt,value
2022-10-02T00:04:46.258Z,71.32
2022-10-02T00:19:46.392Z,71.08
2022-10-02T00:34:46.465Z,70.91
2022-10-02T00:49:46.584Z,71.01
2022-10-02T01:04:46.690Z,71.01
2022-10-02T01:19:46.808Z,71.28
2022-10-02T01:34:46.895Z,71.49
2022-10-02T01:49:47.020Z,71.97
2022-10-02T02:04:47.169Z,71.32
2022-10-02T02:19:48.305Z,71.97
2022-10-02T02:34:49.068Z,71.97
2022-10-02T02:49:49.088Z,71.66
2022-10-02T03:04:49.801Z,72.55
2022-10-02T03:19:49.894Z,71.86
2022-10-02T03:34:49.934Z,73.02
2022-10-02T03:49:50.037Z,72.75
2022-10-02T04:04:50.650Z,72.48
2022-10-02T04:19:50.761Z,71.55
2022-10-02T04:34:50.863Z,72.00
2022-10-02T04:49:51.017Z,71.18
2022-10-02T05:04:51.077Z,71.32
2022-10-02T05:19:51.180Z,72.92
2022-10-02T05:34:51.269Z,74.26
2022-10-02T05:49:51.383Z,74.36
2022-10-02T06:04:51.513Z,76.03
2022-10-02T06:19:51.605Z,78.99
2022-10-02T06:34:51.681Z,85.61
2022-10-02T06:49:51.819Z,90.26
2022-10-02T07:04:53.029Z,94.26
2022-10-02T07:19:53.073Z,97.83
2022-10-02T07:34:53.358Z,99.21
2022-10-02T07:49:54.357Z,99.99
2022-10-02T08:04:54.546Z,99.99
2022-10-02T08:19:54.666Z,99.99
2022-10-02T08:34:54.688Z,99.99
2022-10-02T08:49:54.841Z,99.99
2022-10-02T09:04:54.952Z,99.99
2022-10-02T09:19:55.046Z,99.99
2022-10-02T09:34:55.109Z,99.99
2022-10-02T09:49:55.187Z,99.99
2022-10-02T10:05:05.677Z,99.99
2022-10-02T10:20:00.414Z,97.55
2022-10-02T10:35:00.962Z,93.22
2022-10-02T10:50:01.382Z,89.54
2022-10-02T11:05:01.637Z,99.99
2022-10-02T11:20:01.538Z,99.68
2022-10-02T11:35:01.874Z,94.60
2022-10-02T11:50:01.857Z,87.41
2022-10-02T12:05:02.027Z,84.35
2022-10-02T12:20:02.090Z,78.64
2022-10-02T12:35:02.149Z,86.83
2022-10-02T12:50:02.306Z,82.93
2022-10-02T13:05:02.868Z,83.88
2022-10-02T13:20:02.966Z,83.88
2022-10-02T13:35:03.008Z,83.50
2022-10-02T13:50:03.182Z,83.30
2022-10-02T14:05:03.241Z,86.29
2022-10-02T14:20:03.556Z,86.07
2022-10-02T14:35:03.474Z,82.81
2022-10-02T14:50:03.776Z,80.83
2022-10-02T15:05:04.658Z,81.65
2022-10-02T15:20:04.865Z,85.30
2022-10-02T15:35:04.903Z,85.70
2022-10-02T15:50:05.083Z,88.11
2022-10-02T16:05:05.081Z,90.73
2022-10-02T16:20:05.267Z,92.18
2022-10-02T16:35:05.857Z,94.45
2022-10-02T16:50:05.966Z,96.33
2022-10-02T17:05:06.594Z,98.75
2022-10-02T17:20:06.642Z,99.99
2022-10-02T17:35:06.756Z,99.99
2022-10-02T17:50:06.839Z,99.99
2022-10-02T18:05:07.446Z,99.99
2022-10-02T18:20:07.611Z,99.99
2022-10-02T18:35:07.666Z,99.99
2022-10-02T18:50:07.803Z,99.99
2022-10-02T19:05:08.101Z,99.32
2022-10-02T19:20:08.429Z,99.43
2022-10-02T19:35:10.411Z,99.99
2022-10-02T19:50:10.589Z,99.99
2022-10-02T20:05:11.688Z,99.99
2022-10-02T20:20:11.908Z,99.99
2022-10-02T20:35:11.982Z,99.99
2022-10-02T20:50:12.076Z,99.99
2022-10-02T21:05:12.761Z,99.99
2022-10-02T21:20:16.658Z,99.99
2022-10-02T21:35:17.994Z,99.78
2022-10-02T21:50:18.033Z,98.65
2022-10-02T22:05:18.163Z,97.37
2022-10-02T22:20:19.061Z,95.72
2022-10-02T22:35:19.577Z,93.47
2022-10-02T22:50:20.202Z,92.08
2022-10-02T23:05:20.592Z,91.97
2022-10-02T23:20:20.817Z,88.80
2022-10-02T23:35:21.446Z,86.40
2022-10-02T23:50:22.031Z,86.67
